createdAt,value
2022-09-20T00:01:23.251Z,10.76
2022-09-20T00:03:55.526Z,10.61
2022-09-20T00:06:31.168Z,10.61
2022-09-20T00:08:58.607Z,10.61
2022-09-20T00:11:30.207Z,10.61
2022-09-20T00:13:58.093Z,10.59
2022-09-20T00:16:31.486Z,10.53
2022-09-20T00:18:59.701Z,10.57
2022-09-20T00:21:29.207Z,10.60
2022-09-20T00:23:57.535Z,10.58
2022-09-20T00:26:25.021Z,10.58
2022-09-20T00:28:51.918Z,10.53
2022-09-20T00:31:18.757Z,10.51
2022-09-20T00:34:04.091Z,10.44
2022-09-20T00:36:31.146Z,10.45
2022-09-20T00:38:59.050Z,10.39
2022-09-20T00:41:26.075Z,10.45
2022-09-20T00:43:53.395Z,10.37
2022-09-20T00:46:36.113Z,10.40
2022-09-20T00:49:13.327Z,10.44
2022-09-20T00:51:41.438Z,10.55
2022-09-20T00:54:09.395Z,10.55
2022-09-20T00:56:39.112Z,10.54
2022-09-20T00:59:16.546Z,10.61
2022-09-20T01:01:50.616Z,10.60
2022-09-20T01:04:19.632Z,10.58
2022-09-20T01:06:46.624Z,10.53
2022-09-20T01:09:14.588Z,10.64
2022-09-20T01:11:41.640Z,10.49
2022-09-20T01:14:08.934Z,10.63
2022-09-20T01:16:36.237Z,10.60
2022-09-20T01:19:10.471Z,10.59
2022-09-20T01:21:37.520Z,10.59
2022-09-20T01:24:29.775Z,10.58
2022-09-20T01:27:05.536Z,10.68
2022-09-20T01:29:45.235Z,10.59
2022-09-20T01:32:14.255Z,10.64
2022-09-20T01:34:48.833Z,10.69
2022-09-20T01:37:26.801Z,10.67
2022-09-20T01:40:04.335Z,10.63
2022-09-20T01:42:42.536Z,10.58
2022-09-20T01:45:23.764Z,10.61
2022-09-20T01:48:12.349Z,10.68
2022-09-20T01:51:09.894Z,10.65
2022-09-20T01:53:46.582Z,10.64
2022-09-20T01:56:31.253Z,10.74
2022-09-20T01:59:23.062Z,10.74
2022-09-20T02:01:53.557Z,10.70
2022-09-20T02:04:45.784Z,10.67
2022-09-20T02:07:31.178Z,10.70
2022-09-20T02:10:10.252Z,10.73
2022-09-20T02:12:56.925Z,10.70
2022-09-20T02:15:55.518Z,10.62
2022-09-20T02:19:07.061Z,10.61
2022-09-20T02:22:21.898Z,10.57
2022-09-20T02:25:26.276Z,10.60
2022-09-20T02:28:03.006Z,10.58
2022-09-20T02:30:35.349Z,10.60
2022-09-20T02:33:18.630Z,10.70
2022-09-20T02:35:58.373Z,10.63
2022-09-20T02:38:43.813Z,10.48
2022-09-20T02:41:21.313Z,10.60
2022-09-20T02:43:56.438Z,10.62
2022-09-20T02:46:33.702Z,10.60
2022-09-20T02:49:14.868Z,10.64
2022-09-20T02:51:55.782Z,10.58
2022-09-20T02:54:51.755Z,10.67
2022-09-20T02:57:25.830Z,10.67
2022-09-20T03:00:01.853Z,10.70
2022-09-20T03:02:36.680Z,10.64
2022-09-20T03:05:14.455Z,10.64
2022-09-20T03:08:11.305Z,10.64
2022-09-20T03:11:12.730Z,10.57
2022-09-20T03:14:08.874Z,10.49
2022-09-20T03:16:54.102Z,10.46
2022-09-20T03:19:38.810Z,10.44
2022-09-20T03:22:28.979Z,10.37
2022-09-20T03:25:28.002Z,10.32
2022-09-20T03:28:09.660Z,10.37
2022-09-20T03:30:48.221Z,10.34
2022-09-20T03:33:25.926Z,10.27
2022-09-20T03:36:24.358Z,10.29
2022-09-20T03:39:09.527Z,10.24
2022-09-20T03:42:02.510Z,10.20
2022-09-20T03:45:06.395Z,10.22
2022-09-20T03:47:40.828Z,10.31
2022-09-20T03:50:26.034Z,10.25
2022-09-20T03:53:19.750Z,10.23
2022-09-20T03:56:16.283Z,10.20
2022-09-20T03:59:01.693Z,10.26
2022-09-20T04:01:40.368Z,10.28
2022-09-20T04:04:14.004Z,10.32
2022-09-20T04:06:46.530Z,10.29
2022-09-20T04:09:57.980Z,10.48
2022-09-20T04:13:12.451Z,10.44
2022-09-20T04:15:51.484Z,10.50
2022-09-20T04:18:58.755Z,10.53
2022-09-20T04:21:39.779Z,10.46
2022-09-20T04:24:14.814Z,10.52
2022-09-20T04:26:45.482Z,10.54
2022-09-20T04:29:28.080Z,10.55
2022-09-20T04:32:18.221Z,10.50
2022-09-20T04:35:08.357Z,10.53
2022-09-20T04:37:38.619Z,10.53
2022-09-20T04:40:10.311Z,10.51
2022-09-20T04:43:20.813Z,10.41
2022-09-20T04:46:05.445Z,10.53
2022-09-20T04:49:00.593Z,10.53
2022-09-20T04:52:10.449Z,10.62
2022-09-20T04:54:47.121Z,10.60
2022-09-20T04:57:36.752Z,10.62
2022-09-20T05:00:12.158Z,10.55
2022-09-20T05:03:06.675Z,10.56
2022-09-20T05:05:39.279Z,10.62
2022-09-20T05:08:24.397Z,10.58
2022-09-20T05:11:17.199Z,10.67
2022-09-20T05:13:43.602Z,10.67
2022-09-20T05:16:18.999Z,10.70
2022-09-20T05:19:16.681Z,10.74
2022-09-20T05:21:52.320Z,10.72
2022-09-20T05:24:39.084Z,10.73
2022-09-20T05:27:27.092Z,10.65
2022-09-20T05:30:33.477Z,10.60
2022-09-20T05:33:02.643Z,10.50
2022-09-20T05:35:54.527Z,10.50
2022-09-20T05:38:32.196Z,10.37
2022-09-20T05:41:14.211Z,10.43
2022-09-20T05:43:51.892Z,10.47
2022-09-20T05:46:45.946Z,10.50
2022-09-20T05:49:50.670Z,10.52
2022-09-20T05:52:39.072Z,10.62
2022-09-20T05:55:39.817Z,10.64
2022-09-20T05:58:22.518Z,10.61
2022-09-20T06:01:01.590Z,10.68
2022-09-20T06:03:39.597Z,10.73
2022-09-20T06:06:15.083Z,10.67
2022-09-20T06:09:03.172Z,10.60
2022-09-20T06:12:03.624Z,10.70
2022-09-20T06:14:48.254Z,10.81
2022-09-20T06:17:37.525Z,10.84
2022-09-20T06:20:24.695Z,11.00
2022-09-20T06:22:54.489Z,11.11
2022-09-20T06:25:24.312Z,11.38
2022-09-20T06:27:53.917Z,11.59
2022-09-20T06:30:27.425Z,11.81
2022-09-20T06:32:55.423Z,11.92
2022-09-20T06:35:24.758Z,12.01
2022-09-20T06:38:43.442Z,11.90
2022-09-20T06:41:28.791Z,11.94
2022-09-20T06:43:58.575Z,11.86
2022-09-20T06:46:29.571Z,11.96
2022-09-20T06:48:56.766Z,11.80
2022-09-20T06:51:25.849Z,11.85
2022-09-20T06:53:53.118Z,12.00
2022-09-20T06:56:21.115Z,12.21
2022-09-20T06:58:47.547Z,12.32
2022-09-20T07:01:14.477Z,12.22
2022-09-20T07:03:41.894Z,12.46
2022-09-20T07:06:09.408Z,12.36
2022-09-20T07:08:36.331Z,12.46
2022-09-20T07:11:06.954Z,12.43
2022-09-20T07:13:34.126Z,12.32
2022-09-20T07:16:04.713Z,12.22
2022-09-20T07:18:31.833Z,12.13
2022-09-20T07:20:58.855Z,12.04
2022-09-20T07:23:32.280Z,11.93
2022-09-20T07:26:00.641Z,11.85
2022-09-20T07:28:32.694Z,11.82
2022-09-20T07:30:59.233Z,11.91
2022-09-20T07:33:25.744Z,11.94
2022-09-20T07:35:56.816Z,11.82
2022-09-20T07:38:24.186Z,11.83
2022-09-20T07:40:55.892Z,11.76
2022-09-20T07:43:22.756Z,11.86
2022-09-20T07:45:56.034Z,11.97
2022-09-20T07:48:25.837Z,12.09
2022-09-20T07:50:54.134Z,11.94
2022-09-20T07:53:20.672Z,11.83
2022-09-20T07:56:08.197Z,11.93
2022-09-20T07:58:35.649Z,12.06
2022-09-20T08:01:05.246Z,12.07
2022-09-20T08:03:33.099Z,12.31
2022-09-20T08:06:05.666Z,12.47
2022-09-20T08:08:33.375Z,12.65
2022-09-20T08:11:11.011Z,12.86
2022-09-20T08:16:24.770Z,12.50
2022-09-20T08:18:57.148Z,12.58
2022-09-20T08:21:31.462Z,12.54
2022-09-20T08:23:58.742Z,12.56
2022-09-20T08:26:26.292Z,12.44
2022-09-20T08:28:54.756Z,12.99
2022-09-20T08:31:23.897Z,13.10
2022-09-20T08:33:50.998Z,13.24
2022-09-20T08:36:19.216Z,13.23
2022-09-20T08:41:35.133Z,13.56
2022-09-20T08:44:11.755Z,13.82
2022-09-20T08:47:09.965Z,13.57
2022-09-20T08:49:37.214Z,14.10
2022-09-20T08:52:10.264Z,14.10
2022-09-20T08:54:37.033Z,14.19
2022-09-20T08:57:10.256Z,14.55
2022-09-20T08:59:36.731Z,14.37
2022-09-20T09:02:03.259Z,14.17
2022-09-20T09:04:36.329Z,14.21
2022-09-20T09:07:03.112Z,14.33
2022-09-20T09:09:30.081Z,14.19
2022-09-20T09:11:58.748Z,14.17
2022-09-20T09:14:48.754Z,14.37
2022-09-20T09:17:18.100Z,14.43
2022-09-20T09:19:53.414Z,14.55
2022-09-20T09:22:37.207Z,14.05
2022-09-20T09:25:23.170Z,14.24
2022-09-20T09:28:06.027Z,14.25
2022-09-20T09:30:35.170Z,14.57
2022-09-20T09:33:19.959Z,15.09
2022-09-20T09:35:55.441Z,15.06
2022-09-20T09:38:24.634Z,15.07
2022-09-20T09:41:02.268Z,15.12
2022-09-20T09:43:31.140Z,14.93
2022-09-20T09:46:18.251Z,14.34
2022-09-20T09:48:49.864Z,14.26
2022-09-20T09:51:18.876Z,14.10
2022-09-20T09:53:47.240Z,14.01
2022-09-20T09:56:34.960Z,14.16
2022-09-20T09:59:04.423Z,14.26
2022-09-20T10:01:41.903Z,14.38
2022-09-20T10:04:36.182Z,14.47
2022-09-20T10:07:08.524Z,14.77
2022-09-20T10:09:54.965Z,14.37
2022-09-20T10:12:39.721Z,14.63
2022-09-20T10:15:17.134Z,14.92
2022-09-20T10:17:52.312Z,15.09
2022-09-20T10:20:41.607Z,15.71
2022-09-20T10:24:02.032Z,15.85
2022-09-20T10:26:23.042Z,16.73
2022-09-20T10:28:55.925Z,16.84
2022-09-20T10:31:40.830Z,17.44
2022-09-20T10:34:32.315Z,18.04
2022-09-20T10:36:59.835Z,17.34
2022-09-20T10:39:32.109Z,17.55
2022-09-20T10:42:45.780Z,17.70
2022-09-20T10:45:36.314Z,17.41
2022-09-20T10:48:10.333Z,17.23
2022-09-20T10:50:43.549Z,17.24
2022-09-20T10:53:41.360Z,17.42
2022-09-20T10:56:28.185Z,17.85
2022-09-20T10:59:20.448Z,18.05
2022-09-20T11:02:12.745Z,18.48
2022-09-20T11:04:47.213Z,19.22
2022-09-20T11:07:18.202Z,19.27
2022-09-20T11:09:50.359Z,19.52
2022-09-20T11:12:25.911Z,20.23
2022-09-20T11:15:22.962Z,20.03
2022-09-20T11:18:07.957Z,20.53
2022-09-20T11:20:44.139Z,21.11
2022-09-20T11:23:18.539Z,21.15
2022-09-20T11:26:07.824Z,20.94
2022-09-20T11:28:39.473Z,20.86
2022-09-20T11:31:23.620Z,20.26
2022-09-20T11:34:01.934Z,20.18
2022-09-20T11:36:40.099Z,20.52
2022-09-20T11:39:21.418Z,20.22
2022-09-20T11:41:49.538Z,19.74
2022-09-20T11:44:18.415Z,18.71
2022-09-20T11:46:52.892Z,18.50
2022-09-20T11:49:58.209Z,19.10
2022-09-20T11:52:33.673Z,19.66
2022-09-20T11:55:23.521Z,21.57
2022-09-20T11:58:01.623Z,23.00
2022-09-20T12:00:35.159Z,23.08
2022-09-20T12:03:04.138Z,23.20
2022-09-20T12:05:35.838Z,23.16
2022-09-20T12:08:06.038Z,22.84
2022-09-20T12:10:35.140Z,22.61
2022-09-20T12:13:07.460Z,22.01
2022-09-20T12:15:41.890Z,20.37
2022-09-20T12:18:31.194Z,20.07
2022-09-20T12:21:02.042Z,20.72
2022-09-20T12:23:40.856Z,21.61
2022-09-20T12:26:20.316Z,21.72
2022-09-20T12:28:50.647Z,21.33
2022-09-20T12:31:25.957Z,20.26
2022-09-20T12:34:11.868Z,20.18
2022-09-20T12:36:40.101Z,21.14
2022-09-20T12:39:21.246Z,21.54
2022-09-20T12:42:01.361Z,21.93
2022-09-20T12:44:38.224Z,22.30
2022-09-20T12:47:16.685Z,21.77
2022-09-20T12:50:04.983Z,21.62
2022-09-20T12:52:52.931Z,21.50
2022-09-20T12:55:41.061Z,22.00
2022-09-20T12:58:13.341Z,22.34
2022-09-20T13:00:46.581Z,22.34
2022-09-20T13:03:18.698Z,22.12
2022-09-20T13:05:46.473Z,22.67
2022-09-20T13:08:16.537Z,22.60
2022-09-20T13:11:07.533Z,23.21
2022-09-20T13:13:41.151Z,23.78
2022-09-20T13:16:20.114Z,23.64
2022-09-20T13:18:47.462Z,23.44
2022-09-20T13:21:13.843Z,22.92
2022-09-20T13:23:48.424Z,22.47
2022-09-20T13:26:15.818Z,21.10
2022-09-20T13:28:47.970Z,20.65
2022-09-20T13:31:20.546Z,19.38
2022-09-20T13:33:47.975Z,18.78
2022-09-20T13:36:14.742Z,18.43
2022-09-20T13:38:41.388Z,18.27
2022-09-20T13:41:12.970Z,18.69
2022-09-20T13:43:43.876Z,19.44
2022-09-20T13:46:13.311Z,19.21
2022-09-20T13:48:40.287Z,19.32
2022-09-20T13:51:39.303Z,18.55
2022-09-20T13:54:27.436Z,17.43
2022-09-20T13:56:56.599Z,16.45
2022-09-20T13:59:23.812Z,15.79
2022-09-20T14:01:52.580Z,15.34
2022-09-20T14:04:25.260Z,15.01
2022-09-20T14:06:53.789Z,14.88
2022-09-20T14:09:36.998Z,14.64
2022-09-20T14:12:05.025Z,14.57
2022-09-20T14:14:32.194Z,14.45
2022-09-20T14:17:02.464Z,14.20
2022-09-20T14:19:34.783Z,14.20
2022-09-20T14:22:05.082Z,14.20
2022-09-20T14:24:36.498Z,13.91
2022-09-20T14:27:06.067Z,14.00
2022-09-20T14:29:40.731Z,13.79
2022-09-20T14:32:17.169Z,13.75
2022-09-20T14:34:46.005Z,13.52
2022-09-20T14:37:18.472Z,13.50
2022-09-20T14:39:50.314Z,13.14
2022-09-20T14:42:29.842Z,13.20
2022-09-20T14:44:56.489Z,13.18
2022-09-20T14:47:27.952Z,13.23
2022-09-20T14:49:55.021Z,13.35
2022-09-20T14:52:27.613Z,13.76
2022-09-20T14:55:10.110Z,14.28
2022-09-20T14:57:36.552Z,14.74
2022-09-20T15:00:11.012Z,15.16
2022-09-20T15:02:37.738Z,15.45
2022-09-20T15:05:04.449Z,15.55
2022-09-20T15:07:30.979Z,15.63
2022-09-20T15:09:57.330Z,15.33
2022-09-20T15:12:23.836Z,15.24
2022-09-20T15:14:50.346Z,15.32
2022-09-20T15:17:18.822Z,15.46
2022-09-20T15:19:46.309Z,15.50
2022-09-20T15:22:12.835Z,15.56
2022-09-20T15:24:39.474Z,15.56
2022-09-20T15:27:06.047Z,15.62
2022-09-20T15:29:32.587Z,15.68
2022-09-20T15:31:59.494Z,15.82
2022-09-20T15:34:26.048Z,15.81
2022-09-20T15:36:53.946Z,15.62
2022-09-20T15:39:22.208Z,15.80
2022-09-20T15:41:51.966Z,15.90
2022-09-20T15:44:18.657Z,15.85
2022-09-20T15:46:45.114Z,15.85
2022-09-20T15:49:11.994Z,15.87
2022-09-20T15:51:39.057Z,15.98
2022-09-20T15:54:07.096Z,15.92
2022-09-20T15:56:35.967Z,15.81
2022-09-20T15:59:04.925Z,15.40
2022-09-20T16:01:33.982Z,15.39
2022-09-20T16:04:00.348Z,15.13
2022-09-20T16:06:26.817Z,15.11
2022-09-20T16:08:53.422Z,14.87
2022-09-20T16:11:22.814Z,14.65
2022-09-20T16:13:54.450Z,14.50
2022-09-20T16:16:21.210Z,14.33
2022-09-20T16:19:07.153Z,14.16
2022-09-20T16:21:33.949Z,13.98
2022-09-20T16:24:00.793Z,13.81
2022-09-20T16:26:27.920Z,13.65
2022-09-20T16:28:57.946Z,13.51
2022-09-20T16:31:40.818Z,13.44
2022-09-20T16:34:19.289Z,13.32
2022-09-20T16:36:50.945Z,13.13
2022-09-20T16:39:18.927Z,13.13
2022-09-20T16:41:48.020Z,13.01
2022-09-20T16:44:15.441Z,12.99
2022-09-20T16:46:41.863Z,12.92
2022-09-20T16:49:10.853Z,12.83
2022-09-20T16:51:42.600Z,12.74
2022-09-20T16:54:13.561Z,12.80
2022-09-20T16:56:45.318Z,12.95
2022-09-20T16:59:12.904Z,12.96
2022-09-20T17:01:40.564Z,12.98
2022-09-20T17:04:08.216Z,12.58
2022-09-20T17:06:37.189Z,12.78
2022-09-20T17:09:05.302Z,12.66
2022-09-20T17:11:34.567Z,12.51
2022-09-20T17:14:01.043Z,12.05
2022-09-20T17:16:33.939Z,11.92
2022-09-20T17:19:02.465Z,11.75
2022-09-20T17:21:30.267Z,11.48
2022-09-20T17:23:58.240Z,11.38
2022-09-20T17:26:33.073Z,11.16
2022-09-20T17:29:01.315Z,10.99
2022-09-20T17:31:31.648Z,11.07
2022-09-20T17:34:00.182Z,11.07
2022-09-20T17:36:32.012Z,11.00
2022-09-20T17:39:03.836Z,11.11
2022-09-20T17:41:30.963Z,11.05
2022-09-20T17:43:58.762Z,11.05
2022-09-20T17:46:31.732Z,11.10
2022-09-20T17:49:03.848Z,11.17
2022-09-20T17:51:33.018Z,11.22
2022-09-20T17:54:00.034Z,11.27
2022-09-20T17:56:31.182Z,11.27
2022-09-20T17:59:06.431Z,11.26
2022-09-20T18:01:34.933Z,11.19
2022-09-20T18:04:02.377Z,11.21
2022-09-20T18:06:35.337Z,11.23
2022-09-20T18:09:05.443Z,11.23
2022-09-20T18:11:37.191Z,11.23
2022-09-20T18:14:05.424Z,11.29
2022-09-20T18:16:33.133Z,11.28
2022-09-20T18:19:02.436Z,11.24
2022-09-20T18:21:30.538Z,11.25
2022-09-20T18:23:57.446Z,11.09
2022-09-20T18:26:25.872Z,11.18
2022-09-20T18:28:52.254Z,11.17
2022-09-20T18:31:19.249Z,11.14
2022-09-20T18:33:45.866Z,11.22
2022-09-20T18:36:12.546Z,11.19
2022-09-20T18:38:40.893Z,11.14
2022-09-20T18:41:07.304Z,11.06
2022-09-20T18:43:35.049Z,10.95
2022-09-20T18:46:01.415Z,10.87
2022-09-20T18:48:33.179Z,10.75
2022-09-20T18:51:01.372Z,10.68
2022-09-20T18:53:32.684Z,10.51
2022-09-20T18:56:25.765Z,10.58
2022-09-20T18:58:57.876Z,10.55
2022-09-20T19:01:37.140Z,10.48
2022-09-20T19:04:22.798Z,10.27
2022-09-20T19:07:08.092Z,10.18
2022-09-20T19:09:40.968Z,10.15
2022-09-20T19:12:17.969Z,10.27
2022-09-20T19:15:02.323Z,10.30
2022-09-20T19:18:06.451Z,10.23
2022-09-20T19:20:48.915Z,10.15
2022-09-20T19:23:30.492Z,10.13
2022-09-20T19:26:19.267Z,10.05
2022-09-20T19:28:46.346Z,10.05
2022-09-20T19:31:21.485Z,10.01
2022-09-20T19:33:48.498Z,10.05
2022-09-20T19:36:16.777Z,10.19
2022-09-20T19:39:08.043Z,10.21
2022-09-20T19:42:03.691Z,10.29
2022-09-20T19:44:42.962Z,10.33
2022-09-20T19:47:34.397Z,10.36
2022-09-20T19:50:16.072Z,10.37
2022-09-20T19:52:43.781Z,10.29
2022-09-20T19:55:12.521Z,10.32
2022-09-20T19:57:43.729Z,10.32
2022-09-20T20:00:15.738Z,10.35
2022-09-20T20:02:44.212Z,10.22
2022-09-20T20:05:16.913Z,10.18
2022-09-20T20:08:11.522Z,10.20
2022-09-20T20:10:53.311Z,10.18
2022-09-20T20:13:44.335Z,10.16
2022-09-20T20:16:13.708Z,10.02
2022-09-20T20:18:52.770Z,9.95
2022-09-20T20:21:35.399Z,9.91
2022-09-20T20:24:11.523Z,9.94
2022-09-20T20:26:37.951Z,9.92
2022-09-20T20:29:04.899Z,9.86
2022-09-20T20:31:31.412Z,9.87
2022-09-20T20:33:57.911Z,9.82
2022-09-20T20:36:24.354Z,9.84
2022-09-20T20:38:52.998Z,9.81
2022-09-20T20:41:21.671Z,9.89
2022-09-20T20:43:49.861Z,9.91
2022-09-20T20:46:20.201Z,10.00
2022-09-20T20:48:47.785Z,10.09
2022-09-20T20:51:19.302Z,10.06
2022-09-20T20:53:50.469Z,10.17
2022-09-20T20:56:19.300Z,10.24
2022-09-20T20:58:46.565Z,10.20
2022-09-20T21:01:29.880Z,10.11
2022-09-20T21:03:57.667Z,10.10
2022-09-20T21:06:30.036Z,10.14
2022-09-20T21:08:56.810Z,10.15
2022-09-20T21:11:28.652Z,10.17
2022-09-20T21:13:59.477Z,10.22
2022-09-20T21:16:30.852Z,10.24
2022-09-20T21:18:58.366Z,10.26
2022-09-20T21:21:33.273Z,10.33
2022-09-20T21:24:02.125Z,10.31
2022-09-20T21:26:31.975Z,10.29
2022-09-20T21:29:00.211Z,10.26
2022-09-20T21:31:28.694Z,10.28
2022-09-20T21:33:55.600Z,10.28
2022-09-20T21:36:25.461Z,10.32
2022-09-20T21:38:52.088Z,10.38
2022-09-20T21:41:23.359Z,10.25
2022-09-20T21:43:55.319Z,10.16
2022-09-20T21:46:23.665Z,10.20
2022-09-20T21:48:50.575Z,10.21
2022-09-20T21:51:18.536Z,10.29
2022-09-20T21:53:46.451Z,10.27
2022-09-20T21:56:16.142Z,10.28
2022-09-20T21:58:42.495Z,10.36
2022-09-20T22:01:11.828Z,10.32
2022-09-20T22:03:46.770Z,10.33
2022-09-20T22:06:18.035Z,10.29
2022-09-20T22:08:49.824Z,10.30
2022-09-20T22:11:17.542Z,10.36
2022-09-20T22:13:45.988Z,10.36
2022-09-20T22:16:18.839Z,10.32
2022-09-20T22:18:46.073Z,10.29
2022-09-20T22:21:18.331Z,10.30
2022-09-20T22:23:45.346Z,10.27
2022-09-20T22:26:17.245Z,10.27
2022-09-20T22:28:43.724Z,10.37
2022-09-20T22:31:15.303Z,10.40
2022-09-20T22:33:46.961Z,10.41
2022-09-20T22:36:15.529Z,10.43
2022-09-20T22:38:45.560Z,10.38
2022-09-20T22:41:13.755Z,10.42
2022-09-20T22:43:40.370Z,10.38
2022-09-20T22:46:09.349Z,10.29
2022-09-20T22:48:36.395Z,10.25
2022-09-20T22:51:16.684Z,10.20
2022-09-20T22:53:43.892Z,10.16
2022-09-20T22:56:12.008Z,10.13
2022-09-20T22:58:40.896Z,10.14
2022-09-20T23:01:19.468Z,10.11
2022-09-20T23:03:47.830Z,10.12
2022-09-20T23:06:22.177Z,10.13
2022-09-20T23:08:49.920Z,10.13
2022-09-20T23:11:16.736Z,10.17
2022-09-20T23:13:44.059Z,10.15
2022-09-20T23:16:19.639Z,10.22
2022-09-20T23:18:48.015Z,10.24
2022-09-20T23:21:16.144Z,10.27
2022-09-20T23:23:44.906Z,10.33
2022-09-20T23:26:15.275Z,10.35
2022-09-20T23:28:44.388Z,10.33
2022-09-20T23:31:14.781Z,10.32
2022-09-20T23:33:50.233Z,10.38
2022-09-20T23:36:17.597Z,10.38
2022-09-20T23:38:46.029Z,10.35
2022-09-20T23:41:15.278Z,10.34
2022-09-20T23:43:42.405Z,10.35
2022-09-20T23:46:10.983Z,10.36
2022-09-20T23:48:41.741Z,10.37
2022-09-20T23:51:12.788Z,10.38
2022-09-20T23:53:39.659Z,10.39
2022-09-20T23:56:07.231Z,10.38
2022-09-20T23:58:36.124Z,10.39
